Time;durP1;ratioP1;P1;durP2;ratioP2;P2;SDS_P1;SDS_P2;PMS_P1;PMS_P2;Temp;Humidity;BMP_temperature;BMP_pressure;BME280_temperature;BME280_humidity;BME280_pressure;Samples;Min_cycle;Max_cycle;Signal;HPM_P1;HPM_P2
2021/09/16 00:02:41;;;;;;;3.30;1.17;;;20.20;67.20;;;;;;20876757;28;81174;-72
2021/09/16 00:12:45;;;;;;;1.88;0.82;;;20.30;67.40;;;;;;20892943;28;80942;-72
2021/09/16 00:22:47;;;;;;;4.13;1.17;;;20.40;67.80;;;;;;20891214;27;80956;-72
2021/09/16 00:32:49;;;;;;;2.03;1.10;;;20.40;67.50;;;;;;20892184;28;80981;-71
2021/09/16 00:42:51;;;;;;;2.10;1.13;;;20.30;66.90;;;;;;20872913;28;80814;-72
2021/09/16 00:52:54;;;;;;;2.63;0.95;;;20.20;66.70;;;;;;20889234;28;79774;-72
2021/09/16 01:02:56;;;;;;;3.08;1.42;;;20.20;67.30;;;;;;20889108;28;80166;-74
2021/09/16 01:12:58;;;;;;;;;;;20.20;68.00;;;;;;20888805;28;81895;-73
2021/09/16 01:23:01;;;;;;;8.23;1.63;;;20.00;68.30;;;;;;20910874;28;80849;-72
2021/09/16 01:33:04;;;;;;;10.18;2.20;;;19.90;69.00;;;;;;20889259;28;80590;-72
2021/09/16 01:43:10;;;;;;;3.38;1.73;;;20.00;70.30;;;;;;20885717;27;79977;-72
2021/09/16 01:53:19;;;;;;;6.57;1.90;;;19.90;71.70;;;;;;20887302;28;81802;-72
2021/09/16 02:03:24;;;;;;;5.63;2.20;;;19.80;72.80;;;;;;20886117;28;80666;-71
2021/09/16 02:13:32;;;;;;;5.22;2.00;;;19.70;72.60;;;;;;20885235;28;80036;-72
2021/09/16 02:23:35;;;;;;;4.93;2.05;;;19.60;72.60;;;;;;20886053;28;80030;-72
2021/09/16 02:33:38;;;;;;;5.18;1.90;;;19.60;72.80;;;;;;20884503;28;80739;-72
2021/09/16 02:43:42;;;;;;;5.00;2.15;;;19.60;72.80;;;;;;20883389;28;80755;-72
2021/09/16 02:53:49;;;;;;;6.68;2.28;;;19.60;73.10;;;;;;20896491;28;81848;-71
2021/09/16 03:03:56;;;;;;;4.85;2.90;;;19.60;73.30;;;;;;20897440;28;80786;-72
2021/09/16 03:14:18;;;;;;;9.23;3.47;;;19.60;73.60;;;;;;20881943;28;83122;-72
2021/09/16 03:24:25;;;;;;;6.38;3.67;;;19.60;73.20;;;;;;20879120;28;80670;-71
2021/09/16 03:34:44;;;;;;;11.20;3.25;;;19.50;73.40;;;;;;20895370;28;79960;-72
2021/09/16 03:44:49;;;;;;;7.60;3.80;;;19.50;74.10;;;;;;20895165;28;81957;-71
2021/09/16 03:54:53;;;;;;;5.05;3.05;;;19.40;74.90;;;;;;20877221;28;80912;-71
2021/09/16 04:04:59;;;;;;;8.20;2.85;;;19.30;74.90;;;;;;20848878;28;80685;-72
2021/09/16 04:15:21;;;;;;;9.03;3.50;;;19.30;75.20;;;;;;20794520;28;80716;-71
2021/09/16 04:25:32;;;;;;;6.15;3.50;;;19.30;75.10;;;;;;20840441;28;80142;-73
2021/09/16 04:35:48;;;;;;;7.10;3.47;;;19.30;74.90;;;;;;20813252;28;80887;-73
2021/09/16 04:46:00;;;;;;;9.67;3.93;;;19.30;74.80;;;;;;20804820;28;80707;-73
2021/09/16 04:56:12;;;;;;;4.32;2.10;;;19.30;74.80;;;;;;20796823;28;81986;-73
2021/09/16 05:06:23;;;;;;;4.22;1.67;;;19.20;75.10;;;;;;20836838;28;80218;-72
2021/09/16 05:16:30;;;;;;;4.75;1.65;;;19.30;75.30;;;;;;20891505;27;81027;-73
2021/09/16 05:26:34;;;;;;;8.13;1.45;;;19.30;75.40;;;;;;21031118;27;81173;-71
2021/09/16 05:36:40;;;;;;;3.53;1.80;;;19.20;76.80;;;;;;21041941;27;81748;-72
2021/09/16 05:46:46;;;;;;;5.20;1.50;;;19.20;77.20;;;;;;21042537;27;81328;-71
2021/09/16 05:56:50;;;;;;;9.95;5.57;;;19.20;77.00;;;;;;21032287;27;81287;-71
2021/09/16 06:06:54;;;;;;;10.40;5.50;;;19.20;76.20;;;;;;21043372;27;81684;-73
2021/09/16 06:16:58;;;;;;;11.02;5.30;;;19.00;76.20;;;;;;21040222;27;81247;-68
2021/09/16 06:27:04;;;;;;;17.33;5.70;;;18.90;75.80;;;;;;21060089;27;81137;-69
2021/09/16 06:37:07;;;;;;;11.68;4.72;;;19.10;75.80;;;;;;21068864;27;81868;-69
2021/09/16 06:47:09;;;;;;;;;;;19.10;75.10;;;;;;21071050;27;81710;-69
2021/09/16 06:57:11;;;;;;;12.68;5.43;;;19.20;75.00;;;;;;21086406;27;80693;-69
2021/09/16 07:07:16;;;;;;;13.52;6.95;;;19.30;74.30;;;;;;21066605;27;81445;-69
2021/09/16 07:17:19;;;;;;;17.05;5.88;;;19.30;74.10;;;;;;21069378;27;80858;-68
2021/09/16 07:27:22;;;;;;;14.30;5.70;;;19.40;73.90;;;;;;21067686;27;81423;-67
2021/09/16 07:37:24;;;;;;;;;;;19.80;72.60;;;;;;21058026;27;81617;-67
2021/09/16 07:47:28;;;;;;;24.55;9.30;;;19.90;72.10;;;;;;21075075;27;76051;-68
2021/09/16 07:57:33;;;;;;;17.38;6.30;;;20.00;71.40;;;;;;21045431;27;81313;-69
2021/09/16 08:07:36;;;;;;;20.90;6.35;;;20.40;70.30;;;;;;21051767;27;81376;-69
2021/09/16 08:17:39;;;;;;;15.15;5.97;;;20.90;68.30;;;;;;21033626;27;81749;-69
2021/09/16 08:27:43;;;;;;;11.90;5.03;;;21.20;67.80;;;;;;21045167;27;80879;-69
2021/09/16 08:37:47;;;;;;;9.60;5.35;;;21.50;66.50;;;;;;21051485;27;81270;-69
2021/09/16 08:47:53;;;;;;;14.27;5.50;;;21.80;65.10;;;;;;21049759;27;80958;-70
2021/09/16 08:57:59;;;;;;;18.52;5.95;;;21.90;64.80;;;;;;21048882;27;81260;-69
2021/09/16 09:08:03;;;;;;;14.55;5.35;;;22.50;63.10;;;;;;21043859;27;81589;-69
2021/09/16 09:18:19;;;;;;;15.48;5.72;;;22.90;61.20;;;;;;21047002;27;80996;-69
2021/09/16 09:28:33;;;;;;;16.08;5.28;;;23.50;59.70;;;;;;21040937;27;81623;-69
2021/09/16 09:38:59;;;;;;;14.55;5.35;;;24.20;56.80;;;;;;21044460;27;81901;-69
2021/09/16 09:49:06;;;;;;;11.38;5.05;;;24.70;56.30;;;;;;21020300;27;81883;-68
2021/09/16 09:59:11;;;;;;;10.73;4.22;;;25.50;53.60;;;;;;21026692;27;80810;-68
2021/09/16 10:09:14;;;;;;;10.05;4.55;;;25.70;52.70;;;;;;21045150;27;81846;-67
2021/09/16 10:19:18;;;;;;;7.35;3.50;;;28.40;47.00;;;;;;21041183;27;81023;-70
2021/09/16 10:29:27;;;;;;;7.15;3.60;;;30.40;41.10;;;;;;21043155;27;81133;-69
2021/09/16 10:39:37;;;;;;;13.65;4.55;;;31.70;38.30;;;;;;21042551;27;81774;-67
2021/09/16 10:49:40;;;;;;;9.05;4.03;;;33.40;35.50;;;;;;21034390;27;81266;-68
2021/09/16 11:09:51;;;;;;;14.18;4.25;;;36.70;30.10;;;;;;21040859;27;81218;-70
2021/09/16 11:19:55;;;;;;;12.45;3.83;;;37.20;29.20;;;;;;21053133;27;81372;-69
2021/09/16 11:29:58;;;;;;;8.32;3.25;;;39.90;25.90;;;;;;21040902;27;82267;-69
2021/09/16 11:40:08;;;;;;;2.53;1.48;;;45.30;20.90;;;;;;21047784;27;81431;-72
2021/09/16 11:50:33;;;;;;;2.93;1.00;;;46.00;20.30;;;;;;21048090;27;81562;-65
2021/09/16 12:00:40;;;;;;;3.63;0.90;;;47.00;19.00;;;;;;21049004;27;81330;-66
2021/09/16 12:10:47;;;;;;;5.28;1.10;;;40.70;23.90;;;;;;21050315;27;81277;-66
2021/09/16 12:20:50;;;;;;;1.92;0.85;;;40.70;26.70;;;;;;21048696;27;81520;-68
2021/09/16 12:30:53;;;;;;;2.30;1.33;;;38.50;27.50;;;;;;21042860;27;81874;-67
2021/09/16 12:40:55;;;;;;;4.10;1.23;;;35.20;29.80;;;;;;21048745;27;81989;-72
2021/09/16 12:51:08;;;;;;;2.75;1.80;;;33.00;31.90;;;;;;21044022;27;80896;-73
2021/09/16 13:01:13;;;;;;;3.13;1.50;;;33.80;31.00;;;;;;21048049;27;81778;-75
2021/09/16 13:11:23;;;;;;;3.25;1.70;;;39.00;25.30;;;;;;21048878;27;82205;-73
2021/09/16 13:21:27;;;;;;;4.70;1.20;;;41.70;22.40;;;;;;21047100;27;82020;-70
2021/09/16 13:31:29;;;;;;;4.53;1.73;;;34.30;29.90;;;;;;21046322;27;81979;-70
2021/09/16 13:41:34;;;;;;;4.03;1.90;;;31.90;33.00;;;;;;20993688;27;82287;-68
2021/09/16 13:51:36;;;;;;;3.63;1.80;;;32.60;32.50;;;;;;20996396;27;80814;-71
2021/09/16 14:01:39;;;;;;;5.07;2.50;;;38.30;26.10;;;;;;20981728;27;80708;-72
2021/09/16 14:11:42;;;;;;;1.95;1.42;;;36.80;27.30;;;;;;20971726;27;81070;-73
2021/09/16 14:21:44;;;;;;;6.35;2.00;;;33.50;30.60;;;;;;20954585;27;81031;-72
2021/09/16 14:31:47;;;;;;;2.58;1.25;;;31.70;33.40;;;;;;20970351;27;82013;-72
2021/09/16 14:41:50;;;;;;;4.47;1.60;;;31.30;34.00;;;;;;21032998;27;80764;-72
2021/09/16 14:51:51;;;;;;;5.40;1.85;;;32.30;33.30;;;;;;21067280;27;81963;-73
2021/09/16 15:01:53;;;;;;;3.38;1.83;;;38.10;25.90;;;;;;21067454;27;80772;-71
2021/09/16 15:11:56;;;;;;;3.20;1.42;;;43.10;21.30;;;;;;21018473;27;81136;-72
2021/09/16 15:21:57;;;;;;;8.65;3.15;;;41.60;22.90;;;;;;20980899;27;80814;-71
2021/09/16 15:31:59;;;;;;;3.00;1.77;;;40.60;23.20;;;;;;20980987;27;82005;-70
2021/09/16 15:42:03;;;;;;;3.28;1.60;;;41.40;22.20;;;;;;20989880;27;80238;-71
2021/09/16 15:52:09;;;;;;;3.80;1.60;;;35.10;28.10;;;;;;21064140;27;80858;-70
2021/09/16 16:02:15;;;;;;;4.78;2.45;;;41.60;22.00;;;;;;21023389;27;80014;-72
2021/09/16 16:12:17;;;;;;;2.67;1.58;;;44.30;20.50;;;;;;21042576;27;80753;-73
2021/09/16 16:22:24;;;;;;;3.97;1.85;;;40.20;23.10;;;;;;21063024;27;82183;-72
2021/09/16 16:32:26;;;;;;;4.85;1.58;;;36.50;27.60;;;;;;21045087;27;79932;-72
2021/09/16 16:42:29;;;;;;;7.00;1.50;;;33.40;31.10;;;;;;20976153;27;80531;-73
2021/09/16 16:52:31;;;;;;;3.78;1.05;;;32.10;32.80;;;;;;20958479;27;80087;-73
2021/09/16 17:02:34;;;;;;;4.40;1.42;;;30.90;33.70;;;;;;21021959;27;81837;-73
2021/09/16 17:12:37;;;;;;;6.03;1.40;;;30.40;35.00;;;;;;21059290;27;80758;-71
2021/09/16 17:22:40;;;;;;;3.80;1.20;;;29.90;36.10;;;;;;20962568;27;80346;-70
2021/09/16 17:32:42;;;;;;;3.75;1.35;;;29.30;36.40;;;;;;20956508;27;81909;-69
2021/09/16 17:42:44;;;;;;;3.65;0.85;;;28.80;36.60;;;;;;20973055;27;80686;-71
2021/09/16 17:52:47;;;;;;;1.63;1.02;;;28.40;38.00;;;;;;20991221;27;80734;-69
2021/09/16 18:02:52;;;;;;;5.22;0.65;;;28.00;40.00;;;;;;21041317;27;81777;-71
2021/09/16 18:12:56;;;;;;;3.53;0.93;;;27.50;39.60;;;;;;21030790;27;80744;-68
2021/09/16 18:23:03;;;;;;;7.90;1.52;;;26.90;40.20;;;;;;20981558;27;81363;-69
2021/09/16 18:33:05;;;;;;;4.32;0.90;;;26.30;40.50;;;;;;20973396;27;80724;-69
2021/09/16 18:43:07;;;;;;;3.85;1.13;;;26.00;40.90;;;;;;20970370;27;80411;-73
2021/09/16 18:53:09;;;;;;;4.93;1.00;;;25.80;42.30;;;;;;20968111;27;82138;-71
2021/09/16 19:03:11;;;;;;;5.00;1.13;;;25.50;43.10;;;;;;20986845;27;80960;-70
2021/09/16 19:13:15;;;;;;;3.05;1.10;;;25.40;42.90;;;;;;20990653;27;80025;-70
2021/09/16 19:23:19;;;;;;;2.60;1.13;;;25.10;43.40;;;;;;21026866;27;81845;-71
2021/09/16 19:33:22;;;;;;;6.18;2.30;;;25.00;44.50;;;;;;21017012;27;80742;-71
2021/09/16 19:43:25;;;;;;;26.25;3.35;;;24.80;44.70;;;;;;21018589;27;81220;-70
2021/09/16 19:53:28;;;;;;;4.50;1.50;;;24.60;44.90;;;;;;20968132;27;80878;-71
2021/09/16 20:03:30;;;;;;;8.02;2.83;;;24.50;45.50;;;;;;20989719;27;80599;-72
2021/09/16 20:13:36;;;;;;;4.22;1.90;;;24.40;45.70;;;;;;20977122;27;80898;-71
2021/09/16 20:23:39;;;;;;;5.90;1.95;;;24.20;45.90;;;;;;20977348;27;81568;-71
2021/09/16 20:33:41;;;;;;;4.18;1.90;;;24.00;46.30;;;;;;20976105;27;80174;-70
2021/09/16 20:43:43;;;;;;;3.75;1.60;;;23.90;47.30;;;;;;20974406;27;80034;-71
2021/09/16 20:53:45;;;;;;;4.55;1.70;;;23.70;48.20;;;;;;20985306;27;81956;-72
2021/09/16 21:03:47;;;;;;;5.07;2.67;;;23.40;48.50;;;;;;21015126;27;81812;-74
2021/09/16 21:13:49;;;;;;;6.03;2.22;;;23.20;49.00;;;;;;20997151;27;81102;-71
2021/09/16 21:23:51;;;;;;;5.07;1.60;;;23.00;49.90;;;;;;20973609;27;81998;-71
2021/09/16 21:33:56;;;;;;;7.22;1.67;;;22.90;51.00;;;;;;20972830;27;81168;-72
2021/09/16 21:43:57;;;;;;;5.32;1.70;;;22.80;52.00;;;;;;21006928;27;81089;-72
2021/09/16 21:53:59;;;;;;;5.53;2.00;;;22.60;52.30;;;;;;21036104;27;81398;-72
2021/09/16 22:04:03;;;;;;;2.65;1.52;;;22.40;52.60;;;;;;21036855;27;80844;-72
2021/09/16 22:14:07;;;;;;;3.45;1.58;;;22.30;53.00;;;;;;21054730;27;81822;-72
2021/09/16 22:24:09;;;;;;;5.85;1.30;;;22.20;53.60;;;;;;21009615;27;80730;-71
2021/09/16 22:34:12;;;;;;;3.05;1.20;;;22.00;54.30;;;;;;20969397;27;81007;-71
2021/09/16 22:44:14;;;;;;;2.80;0.90;;;21.90;55.10;;;;;;20949564;27;81856;-71
2021/09/16 22:54:17;;;;;;;3.95;1.35;;;21.70;56.00;;;;;;20949289;27;81048;-72
2021/09/16 23:04:19;;;;;;;1.88;1.02;;;21.50;56.70;;;;;;20950084;27;80617;-72
2021/09/16 23:14:22;;;;;;;3.70;1.05;;;21.40;57.60;;;;;;20981453;27;82085;-73
2021/09/16 23:24:24;;;;;;;1.42;0.65;;;21.40;57.80;;;;;;20980450;27;81518;-71
2021/09/16 23:34:28;;;;;;;4.20;0.85;;;21.20;58.50;;;;;;20980002;27;81049;-72
2021/09/16 23:44:30;;;;;;;1.83;0.80;;;21.00;59.50;;;;;;20978776;27;80905;-72
2021/09/16 23:54:32;;;;;;;4.97;1.33;;;20.90;60.00;;;;;;20978905;27;81903;-71
